HOURLY OBS INDEX

015

Northern Plateau--Barkly/Alice Spgs

ALICE SPRINGS AIRPORT

Site: 015590
Alt: 546.0m
11km SSE of ALICE SPRINGS


  Time     Wind        Temp  DP   Baro     Rain since   Rain past  Vis(m), Cloud(base in m), Weather
  local        km/h                         9am  last   hr   10m    
Sun 00:30  NNW  2/  7   6.7  1.0  1023.1    0.0   0.0   0.0   0.0   10000 
Sun 01:00    C  0/  0   6.8  1.5  1023.1    0.0   0.0   0.0   0.0   10000 
Sun 01:30    C  0/  0   5.2  0.8  1023.1    0.0   0.0   0.0   0.0   10000 
Sun 02:00    C  0/  0   4.4  0.7  1023.2    0.0   0.0   0.0   0.0   10000 
Sun 02:30    C  0/  0   4.4  0.7  1023.5    0.0   0.0   0.0   0.0   10000 
Sun 03:00    C  0/  0   4.6  0.2  1023.3    0.0   0.0   0.0   0.0   10000 
Sun 03:30    C  0/  0   4.8  1.3  1023.1    0.0   0.0   0.0   0.0   10000 
Sun 04:00    C  0/  0   3.5  0.6  1023.3    0.0   0.0   0.0   0.0   10000 
Sun 04:30  WSW  7/  9   2.6  0.2  1023.5    0.0   0.0   0.0   0.0   10000 
Sun 05:00    W  9/ 11   2.8  0.7  1023.9    0.0   0.0   0.0   0.0   10000 
Sun 05:30    W  9/  9   3.4  0.6  1024.0    0.0   0.0   0.0   0.0   10000 

JERVOIS

Site: 015602
Alt: 328.0m
247km ENE of ALICE SPRINGS


  Time     Wind        Temp  DP   Baro     Rain since   Rain past  Vis(m), Cloud(base in m), Weather
  local        km/h                         9am  last   hr   10m    
Sun 00:30  SSE 11/ 17  13.7  0.4  1021.9    0.0   0.0   0.0   0.0   ----- 
Sun 01:00    S 11/ 17  13.3  0.3  1021.7    0.0   0.0   0.0   0.0   ----- 
Sun 01:30    S  9/ 11  12.6  0.7  1021.8    0.0   0.0   0.0   0.0   ----- 
Sun 02:00    S 11/ 17  12.5  0.9  1021.9    0.0   0.0   0.0   0.0   ----- 
Sun 02:30  SSE 13/ 17  12.4  0.8  1021.7    0.0   0.0   0.0   0.0   ----- 
Sun 03:00  SSE 11/ 17  11.8  0.9  1021.7    0.0   0.0   0.0   0.0   ----- 
Sun 03:30    S 11/ 15  11.5  0.9  1021.4    0.0   0.0   0.0   0.0   ----- 
Sun 04:00    S 13/ 17  11.3  1.0  1021.5    0.0   0.0   0.0   0.0   ----- 
Sun 04:30  SSE 11/ 17  10.7  1.0  1021.7    0.0   0.0   0.0   0.0   ----- 
Sun 05:00    S  9/ 13  10.1  0.7  1022.0    0.0   0.0   0.0   0.0   ----- 
Sun 05:30  SSW  9/ 11   9.1  0.6  1022.3    0.0   0.0   0.0   0.0   ----- 

RABBIT FLAT

Site: 015666
Alt: 340.0m
296km NW of YUENDUMU


  Time     Wind        Temp  DP   Baro     Rain since   Rain past  Vis(m), Cloud(base in m), Weather
  local        km/h                         9am  last   hr   10m    
Sun 00:30    E 11/ 15  13.0 -1.0  1018.4    0.0   0.0   0.0   0.0   ----- 
Sun 01:00    E 11/ 13  12.9 -0.4  1018.4    0.0   0.0   0.0   0.0   ----- 
Sun 01:30    E  9/ 13  12.8  0.2  1018.4    0.0   0.0   0.0   0.0   ----- 
Sun 02:00    E  7/  9  11.6 -0.9  1018.4    0.0   0.0   0.0   0.0   ----- 
Sun 02:30    E  6/  7   9.9 -1.5  1018.3    0.0   0.0   0.0   0.0   ----- 
Sun 03:00   SE 13/ 15  11.0  0.4  1018.4    0.0   0.0   0.0   0.0   ----- 
Sun 03:30    S 13/ 13  11.2  0.3  1018.4    0.0   0.0   0.0   0.0   ----- 
Sun 04:00  SSE 13/ 15  11.6  0.4  1018.5    0.0   0.0   0.0   0.0   ----- 
Sun 04:30  SSE 11/ 15   9.8  0.2  1018.5    0.0   0.0   0.0   0.0   ----- 
Sun 05:00  SSE 11/ 15  10.0  0.6  1018.6    0.0   0.0   0.0   0.0   ----- 
Sun 05:30    S  9/ 11   8.6 -0.2  1018.8    0.0   0.0   0.0   0.0   ----- 

TENNANT CREEK AIRPORT

Site: 015135
Alt: 375.7m
1km NW of TENNANT CREEK


  Time     Wind        Temp  DP   Baro     Rain since   Rain past  Vis(m), Cloud(base in m), Weather
  local        km/h                         9am  last   hr   10m    
Sun 00:30   SE 19/ 24  17.2  1.6  1018.2    0.0   0.0   0.0   0.0   10000 
Sun 01:00   SE 19/ 28  16.7  1.6  1018.3    0.0   0.0   0.0   0.0   10000 
Sun 01:30   SE 20/ 28  16.8  1.7  1018.0    0.0   0.0   0.0   0.0   10000 
Sun 02:00   SE 17/ 22  16.6  1.9  1018.1    0.0   0.0   0.0   0.0   10000 
Sun 02:30   SE 17/ 22  16.5  1.8  1018.2    0.0   0.0   0.0   0.0   10000 
Sun 03:00   SE 17/ 22  16.6  1.9  1017.9    0.0   0.0   0.0   0.0   10000 
Sun 03:30   SE 19/ 26  16.6  1.9  1017.9    0.0   0.0   0.0   0.0   10000 
Sun 04:00   SE 22/ 30  16.6  1.9  1017.9    0.0   0.0   0.0   0.0   10000 
Sun 04:30   SE 20/ 33  16.6  2.2  1018.0    0.0   0.0   0.0   0.0   10000 
Sun 05:00   SE 22/ 30  16.8  2.4  1018.1    0.0   0.0   0.0   0.0   10000 
Sun 05:30   SE 24/ 33  16.8  2.4  1018.3    0.0   0.0   0.0   0.0   10000 

TERRITORY GRAPE FARM

Site: 015643
Alt: 565.6m
141km N of ALICE SPRINGS


  Time     Wind        Temp  DP   Baro     Rain since   Rain past  Vis(m), Cloud(base in m), Weather
  local        km/h                         9am  last   hr   10m    
Sun 00:30  SSE 13/ 19  12.2  0.3  1021.8    0.0   0.0   0.0   0.0   ----- 
Sun 01:00    S 11/ 13  10.5  0.0  1022.1    0.0   0.0   0.0   0.0   ----- 
Sun 01:30  SSE  9/ 13   9.8 -0.1  1021.8    0.0   0.0   0.0   0.0   ----- 
Sun 02:00    S  9/ 11   9.3  0.0  1022.0    0.0   0.0   0.0   0.0   ----- 
Sun 02:30    S  9/ 11   8.2 -0.5  1021.8    0.0   0.0   0.0   0.0   ----- 
Sun 03:00    S  9/ 11   8.0 -0.2  1021.6    0.0   0.0   0.0   0.0   ----- 
Sun 03:30    S  9/ 13   8.3  0.1  1022.1    0.0   0.0   0.0   0.0   ----- 
Sun 04:00    S 11/ 13   7.5 -0.2  1022.0    0.0   0.0   0.0   0.0   ----- 
Sun 04:30    S  9/ 11   7.9  0.2  1022.2    0.0   0.0   0.0   0.0   ----- 
Sun 05:00  SSE  9/ 13   8.1  0.1  1022.3    0.0   0.0   0.0   0.0   ----- 
Sun 05:30  SSE 11/ 15   8.2  0.2  1022.6    0.0   0.0   0.0   0.0   ----- 

WALUNGURRU AIRPORT

Site: 015664
Alt: 454.3m
272km WSW of YUENDUMU


  Time     Wind        Temp  DP   Baro     Rain since   Rain past  Vis(m), Cloud(base in m), Weather
  local        km/h                         9am  last   hr   10m    
Sun 00:30  ESE 33/ 45  17.8 -0.9  1021.3    0.0   0.0   0.0   0.0   ----- 
Sun 01:00  ESE 35/ 45  17.6 -1.1  1021.3    0.0   0.0   0.0   0.0   ----- 
Sun 01:30  ESE 33/ 43  17.5 -0.7  1021.4    0.0   0.0   0.0   0.0   ----- 
Sun 02:00  SSE 26/ 32  14.8 -0.9  1021.8    0.0   0.0   0.0   0.0   ----- 
Sun 02:30   SE 28/ 41  15.1 -0.2  1021.7    0.0   0.0   0.0   0.0   ----- 
Sun 03:00  ESE 33/ 50  15.7 -0.9  1021.7    0.0   0.0   0.0   0.0   ----- 
Sun 03:05   SE 32/ 50  14.9 -0.8  1021.8    0.0   0.0  ----   0.0   ----- 
Sun 03:30   SE 26/ 33  13.7  0.0  1021.9    0.0   0.0   0.0   0.0   ----- 
Sun 04:00   SE 26/ 35  13.3  0.3  1022.0    0.0   0.0   0.0   0.0   ----- 
Sun 04:30   SE 30/ 39  14.2  0.1  1022.1    0.0   0.0   0.0   0.0   ----- 
Sun 05:00   SE 28/ 39  12.4  0.5  1022.4    0.0   0.0   0.0   0.0   ----- 
Sun 05:30   SE 32/ 41  13.5  0.5  1022.4    0.0   0.0   0.0   0.0   ----- 

YULARA AIRPORT

Site: 015635
Alt: 492.0m
7km N of YULARA


  Time     Wind        Temp  DP   Baro     Rain since   Rain past  Vis(m), Cloud(base in m), Weather
  local        km/h                         9am  last   hr   10m    
Sun 00:30  ESE 13/ 17  12.1  4.1  1024.3    0.0   0.0   0.0   0.0   10000 
Sun 01:00  SSE 13/ 17  11.1  4.3  1024.5    0.0   0.0   0.0   0.0   10000 
Sun 01:30    S 13/ 17  10.3  4.2  1024.6    0.0   0.0   0.0   0.0   10000 
Sun 02:00  SSE 15/ 22  11.3  5.2  1024.7    0.0   0.0   0.0   0.0   10000 
Sun 02:30   SE 17/ 20  11.8  5.9  1024.8    0.0   0.0   0.0   0.0   10000|OC2160 
Sun 03:00   SE 15/ 20  10.9  5.4  1024.7    0.0   0.0   0.0   0.0   10000|SC2220 
Sun 03:30  SSE 13/ 15  10.2  5.6  1024.7    0.0   0.0   0.0   0.0   10000 
Sun 04:00  SSE  9/ 13   9.9  5.7  1024.6    0.0   0.0   0.0   0.0   10000|SC2280 
Sun 04:30  ESE  9/ 13   9.6  5.8  1024.6    0.0   0.0   0.0   0.0   10000 
Sun 05:00  SSE 11/ 13   9.2  5.9  1024.9    0.0   0.0   0.0   0.0   10000 
Sun 05:30   SE  9/ 13   8.8  5.9  1025.1    0.0   0.0   0.0   0.0   10000